Delta Virtual Airport Information Service

New York LaGuardia Airport

ICAO: KLGA Country: United States
Latitude: 40.7772 Longitude: -73.8726
Latest Arrival : NKS224 (KORD-KLGA) Latest Departure : WJA1203 (KLGA-CYYZ)


WX CaptureLIVE
Data provided by noaa.gov | Fetched at 11:29:23

METAR : KLGA 281607Z 06007KT 10SM SCT024 13/06 A2997 RMK AO2 T01330056

TAF : KLGA 281425Z 2814/2918 03009KT P6SM BKN020 FM281800 08008KT P6SM BKN035 FM290100 07008KT P6SM SCT025 BKN035 FM291400 06011G17KT P6SM BKN020


Runway Data for KLGA
Data provided by openaviationdata.com

Runway ID Mag Var Hdg Length Elevation Surface ILS Freq ILS Id ILS Slope
4 -13 45° 7000 ft 22 ft Asphalt 110.5 ILGA 3
13 -13 135° 6994 ft 22 ft Asphalt 108.5 IGDI 3
22 -13 225° 7000 ft 22 ft Asphalt 110.5 IURD 3
31 -13 315° 6994 ft 22 ft Asphalt 108.5 IPZV 0

New York LaGuardia Airport, United States
Use only for reference purposes



Not for navigational purposes.